createdAt,value
2018-09-15T00:01:05.809Z,99.90
2018-09-15T00:03:33.355Z,99.90
2018-09-15T00:06:00.896Z,99.90
2018-09-15T00:08:28.490Z,99.90
2018-09-15T00:10:56.139Z,99.90
2018-09-15T00:13:23.867Z,99.90
2018-09-15T00:15:51.708Z,99.90
2018-09-15T00:18:19.334Z,99.90
2018-09-15T00:20:46.968Z,99.90
2018-09-15T00:23:15.138Z,99.90
2018-09-15T00:25:42.877Z,99.90
2018-09-15T00:28:11.031Z,99.90
2018-09-15T00:30:38.821Z,99.90
2018-09-15T00:33:06.359Z,99.90
2018-09-15T00:35:33.939Z,99.90
2018-09-15T00:38:01.521Z,99.90
2018-09-15T00:40:29.061Z,99.90
2018-09-15T00:42:56.595Z,99.90
2018-09-15T00:45:24.158Z,99.90
2018-09-15T00:47:51.841Z,99.90
2018-09-15T00:50:19.388Z,99.90
2018-09-15T00:52:46.966Z,99.90
2018-09-15T00:55:14.514Z,99.90
2018-09-15T00:57:42.098Z,99.90
2018-09-15T01:00:09.767Z,99.90
2018-09-15T01:02:37.358Z,99.90
2018-09-15T01:05:05.358Z,99.90
2018-09-15T01:07:32.922Z,99.90
2018-09-15T01:10:00.494Z,99.90
2018-09-15T01:12:28.032Z,99.90
2018-09-15T01:14:55.554Z,99.90
2018-09-15T01:17:23.105Z,99.90
2018-09-15T01:19:50.730Z,99.90
2018-09-15T01:22:18.352Z,99.90
2018-09-15T01:24:46.099Z,99.90
2018-09-15T01:27:13.699Z,99.90
2018-09-15T01:29:41.258Z,99.90
2018-09-15T01:32:08.898Z,99.90
2018-09-15T01:34:36.430Z,99.90
2018-09-15T01:37:04.030Z,99.90
2018-09-15T01:39:31.569Z,99.90
2018-09-15T01:41:59.090Z,99.90
2018-09-15T01:44:26.619Z,99.90
2018-09-15T01:46:54.120Z,99.90
2018-09-15T01:49:21.682Z,99.90
2018-09-15T01:51:49.490Z,99.90
2018-09-15T01:54:17.779Z,99.90
2018-09-15T01:56:45.329Z,99.90
2018-09-15T01:59:12.842Z,99.90
2018-09-15T02:01:40.448Z,99.90
2018-09-15T02:04:08.381Z,99.90
2018-09-15T02:06:35.957Z,99.90
2018-09-15T02:09:08.492Z,99.90
2018-09-15T02:11:36.040Z,99.90
2018-09-15T02:14:03.661Z,99.90
2018-09-15T02:16:31.248Z,99.90
2018-09-15T02:18:58.841Z,99.90
2018-09-15T02:21:26.434Z,99.90
2018-09-15T02:23:53.964Z,99.90
2018-09-15T02:26:21.533Z,99.90
2018-09-15T02:28:49.073Z,99.90
2018-09-15T02:31:16.613Z,99.90
2018-09-15T02:33:44.162Z,99.90
2018-09-15T02:36:11.703Z,99.90
2018-09-15T02:38:39.242Z,99.90
2018-09-15T02:41:06.785Z,99.90
2018-09-15T02:43:34.309Z,99.90
2018-09-15T02:46:01.915Z,99.90
2018-09-15T02:48:29.455Z,99.90
2018-09-15T02:50:57.962Z,99.90
2018-09-15T02:53:25.516Z,99.90
2018-09-15T02:55:53.110Z,99.90
2018-09-15T02:58:20.661Z,99.90
2018-09-15T03:00:48.221Z,99.90
2018-09-15T03:03:15.758Z,99.90
2018-09-15T03:05:43.321Z,99.90
2018-09-15T03:08:10.841Z,99.90
2018-09-15T03:10:38.392Z,99.90
2018-09-15T03:13:06.008Z,99.90
2018-09-15T03:15:33.517Z,99.90
2018-09-15T03:18:01.045Z,99.90
2018-09-15T03:20:28.576Z,99.90
2018-09-15T03:22:56.162Z,99.90
2018-09-15T03:25:23.735Z,99.90
2018-09-15T03:27:51.279Z,99.90
2018-09-15T03:30:18.969Z,99.90
2018-09-15T03:32:46.510Z,99.90
2018-09-15T03:35:14.081Z,99.90
2018-09-15T03:37:41.668Z,99.90
2018-09-15T03:40:09.189Z,99.90
2018-09-15T03:42:36.709Z,99.90
2018-09-15T03:45:04.313Z,99.90
2018-09-15T03:47:31.831Z,99.90
2018-09-15T03:49:59.364Z,99.90
2018-09-15T03:52:26.886Z,99.90
2018-09-15T03:54:54.443Z,99.90
2018-09-15T03:57:21.977Z,99.90
2018-09-15T03:59:49.593Z,99.90
2018-09-15T04:02:17.108Z,99.90
2018-09-15T04:04:45.217Z,99.90
2018-09-15T04:07:12.734Z,99.90
2018-09-15T04:09:40.358Z,99.90
2018-09-15T04:12:07.920Z,99.90
2018-09-15T04:14:35.459Z,99.90
2018-09-15T04:17:03.014Z,99.90
2018-09-15T04:19:30.570Z,99.90
2018-09-15T04:21:58.084Z,99.90
2018-09-15T04:24:25.666Z,99.90
2018-09-15T04:26:53.340Z,99.90
2018-09-15T04:29:20.885Z,99.90
2018-09-15T04:31:48.487Z,99.90
2018-09-15T04:34:16.098Z,99.90
2018-09-15T04:36:43.624Z,99.90
2018-09-15T04:39:11.874Z,99.90
2018-09-15T04:41:39.771Z,99.90
2018-09-15T04:44:07.510Z,99.90
2018-09-15T04:46:35.114Z,99.90
2018-09-15T04:49:02.657Z,99.90
2018-09-15T04:51:30.252Z,99.90
2018-09-15T04:53:57.917Z,99.90
2018-09-15T04:56:25.559Z,99.90
2018-09-15T04:58:53.127Z,99.90
2018-09-15T05:01:20.717Z,99.90
2018-09-15T05:03:48.315Z,99.90
2018-09-15T05:06:15.865Z,99.90
2018-09-15T05:08:43.420Z,99.90
2018-09-15T05:11:10.993Z,99.90
2018-09-15T05:13:38.745Z,99.90
2018-09-15T05:16:06.294Z,99.90
2018-09-15T05:18:33.837Z,99.90
2018-09-15T05:21:01.400Z,99.90
2018-09-15T05:23:28.931Z,99.90
2018-09-15T05:25:56.475Z,99.90
2018-09-15T05:28:24.011Z,99.90
2018-09-15T05:30:51.563Z,99.90
2018-09-15T05:33:19.113Z,99.90
2018-09-15T05:35:46.629Z,99.90
2018-09-15T05:38:14.165Z,99.90
2018-09-15T05:40:41.737Z,99.90
2018-09-15T05:43:09.289Z,99.90
2018-09-15T05:45:37.003Z,99.90
2018-09-15T05:48:04.842Z,99.90
2018-09-15T05:50:32.419Z,99.90
2018-09-15T05:53:00.303Z,99.90
2018-09-15T05:55:27.882Z,99.90
2018-09-15T05:57:55.433Z,99.90
2018-09-15T06:00:23.084Z,99.90
2018-09-15T06:02:50.613Z,99.90
2018-09-15T06:05:18.217Z,99.90
2018-09-15T06:07:45.841Z,99.90
2018-09-15T06:10:13.325Z,99.90
2018-09-15T06:12:40.882Z,99.90
2018-09-15T06:15:08.455Z,99.90
2018-09-15T06:17:36.026Z,99.90
2018-09-15T06:20:03.689Z,99.90
2018-09-15T06:22:31.216Z,99.90
2018-09-15T06:24:58.785Z,99.90
2018-09-15T06:27:26.316Z,99.90
2018-09-15T06:29:53.884Z,99.90
2018-09-15T06:32:21.414Z,99.90
2018-09-15T06:34:48.988Z,99.90
2018-09-15T06:37:16.608Z,99.90
2018-09-15T06:39:44.243Z,99.90
2018-09-15T06:42:11.824Z,99.90
2018-09-15T06:44:39.354Z,99.90
2018-09-15T06:47:06.986Z,99.90
2018-09-15T06:49:34.572Z,99.90
2018-09-15T06:52:02.123Z,99.90
2018-09-15T06:54:29.706Z,99.90
2018-09-15T06:56:57.263Z,99.90
2018-09-15T06:59:24.830Z,99.90
2018-09-15T07:01:52.381Z,99.90
2018-09-15T07:04:19.935Z,99.90
2018-09-15T07:06:47.507Z,99.90
2018-09-15T07:09:15.091Z,99.90
2018-09-15T07:11:42.655Z,99.90
2018-09-15T07:14:10.863Z,99.90
2018-09-15T07:16:38.683Z,99.90
2018-09-15T07:19:06.330Z,99.90
2018-09-15T07:21:33.956Z,99.90
2018-09-15T07:24:01.530Z,99.90
2018-09-15T07:26:29.275Z,99.90
2018-09-15T07:28:56.814Z,99.90
2018-09-15T07:31:24.465Z,99.90
2018-09-15T07:33:52.039Z,99.90
2018-09-15T07:36:19.619Z,99.90
2018-09-15T07:38:47.171Z,99.90
2018-09-15T07:41:14.747Z,99.90
2018-09-15T07:43:42.321Z,99.90
2018-09-15T07:46:09.896Z,99.90
2018-09-15T07:48:37.783Z,99.90
2018-09-15T07:51:05.883Z,99.90
2018-09-15T07:53:33.437Z,99.90
2018-09-15T07:56:01.048Z,99.90
2018-09-15T07:58:28.609Z,99.90
2018-09-15T08:00:56.159Z,99.90
2018-09-15T08:03:26.645Z,99.90
2018-09-15T08:05:54.260Z,99.90
2018-09-15T08:08:21.849Z,99.90
2018-09-15T08:10:49.397Z,99.90
2018-09-15T08:13:16.967Z,99.90
2018-09-15T08:15:44.521Z,99.90
2018-09-15T08:18:12.097Z,99.90
2018-09-15T08:20:39.690Z,99.90
2018-09-15T08:23:07.268Z,99.90
2018-09-15T08:25:34.823Z,99.90
2018-09-15T08:28:02.399Z,99.90
2018-09-15T08:30:29.968Z,99.90
2018-09-15T08:32:57.528Z,99.90
2018-09-15T08:35:25.063Z,99.90
2018-09-15T08:37:52.622Z,99.90
2018-09-15T08:40:20.207Z,99.90
2018-09-15T08:42:47.825Z,99.90
2018-09-15T08:45:16.142Z,99.90
2018-09-15T08:47:43.701Z,99.90
2018-09-15T08:50:11.284Z,99.90
2018-09-15T08:52:38.957Z,99.90
2018-09-15T08:55:06.551Z,99.90
2018-09-15T08:57:34.159Z,99.90
2018-09-15T09:00:01.840Z,99.50
2018-09-15T09:02:29.435Z,99.10
2018-09-15T09:04:57.023Z,98.80
2018-09-15T09:07:24.576Z,98.70
2018-09-15T09:09:52.182Z,98.50
2018-09-15T09:12:19.758Z,98.20
2018-09-15T09:14:47.355Z,98.10
2018-09-15T09:17:14.900Z,98.40
2018-09-15T09:19:42.474Z,98.60
2018-09-15T09:22:10.024Z,98.50
2018-09-15T09:24:37.668Z,98.60
2018-09-15T09:27:05.272Z,98.50
2018-09-15T09:29:32.841Z,98.40
2018-09-15T09:32:00.376Z,98.40
2018-09-15T09:34:27.964Z,98.10
2018-09-15T09:36:55.538Z,98.10
2018-09-15T09:39:23.157Z,97.70
2018-09-15T09:41:50.698Z,97.60
2018-09-15T09:44:18.262Z,97.60
2018-09-15T09:46:45.809Z,97.70
2018-09-15T09:49:13.379Z,97.50
2018-09-15T09:51:43.083Z,97.70
2018-09-15T09:54:10.665Z,98.20
2018-09-15T09:56:38.254Z,98.60
2018-09-15T09:59:06.161Z,98.70
2018-09-15T10:01:39.357Z,98.90
2018-09-15T10:04:06.915Z,98.80
2018-09-15T10:06:34.535Z,98.80
2018-09-15T10:09:02.208Z,98.90
2018-09-15T10:11:29.867Z,98.90
2018-09-15T10:13:57.465Z,98.80
2018-09-15T10:16:25.068Z,98.70
2018-09-15T10:18:52.664Z,98.90
2018-09-15T10:21:20.231Z,98.90
2018-09-15T10:23:47.879Z,98.90
2018-09-15T10:26:15.449Z,99.20
2018-09-15T10:28:42.973Z,99.30
2018-09-15T10:31:10.584Z,99.40
2018-09-15T10:33:38.139Z,99.50
2018-09-15T10:36:05.775Z,99.30
2018-09-15T10:38:33.402Z,99.30
2018-09-15T10:41:00.918Z,99.30
2018-09-15T10:43:28.556Z,99.10
2018-09-15T10:45:56.138Z,98.90
2018-09-15T10:48:23.671Z,98.50
2018-09-15T10:50:51.263Z,98.20
2018-09-15T10:53:18.885Z,98.00
2018-09-15T10:55:46.472Z,97.90
2018-09-15T10:58:14.097Z,97.90
2018-09-15T11:00:41.712Z,97.70
2018-09-15T11:03:09.286Z,97.50
2018-09-15T11:05:36.832Z,97.60
2018-09-15T11:08:04.504Z,96.60
2018-09-15T11:10:32.074Z,96.60
2018-09-15T11:12:59.738Z,96.50
2018-09-15T11:15:27.286Z,96.20
2018-09-15T11:17:54.836Z,96.20
2018-09-15T11:20:22.366Z,96.20
2018-09-15T11:22:49.991Z,95.50
2018-09-15T11:25:17.516Z,95.30
2018-09-15T11:27:45.066Z,95.20
2018-09-15T11:30:12.595Z,95.10
2018-09-15T11:32:40.198Z,95.10
2018-09-15T11:35:08.011Z,94.70
2018-09-15T11:37:35.559Z,93.90
2018-09-15T11:40:03.244Z,93.30
2018-09-15T11:42:30.802Z,93.00
2018-09-15T11:44:58.378Z,92.70
2018-09-15T11:47:25.931Z,91.60
2018-09-15T11:49:53.544Z,91.60
2018-09-15T11:52:21.107Z,91.10
2018-09-15T11:54:48.658Z,90.90
2018-09-15T11:57:16.272Z,90.40
2018-09-15T11:59:43.861Z,89.70
2018-09-15T12:02:11.413Z,90.30
2018-09-15T12:04:38.995Z,90.10
2018-09-15T12:07:06.756Z,89.00
2018-09-15T12:09:34.370Z,88.70
2018-09-15T12:12:01.936Z,88.40
2018-09-15T12:14:29.541Z,88.90
2018-09-15T12:16:57.127Z,89.20
2018-09-15T12:19:24.688Z,88.10
2018-09-15T12:21:52.346Z,88.00
2018-09-15T12:24:19.863Z,88.40
2018-09-15T12:26:47.469Z,88.30
2018-09-15T12:29:15.029Z,87.30
2018-09-15T12:31:42.588Z,86.90
2018-09-15T12:34:10.175Z,86.90
2018-09-15T12:36:37.771Z,87.70
2018-09-15T12:39:07.201Z,86.80
2018-09-15T12:41:34.765Z,86.70
2018-09-15T12:44:02.391Z,86.70
2018-09-15T12:46:29.979Z,87.50
2018-09-15T12:48:57.552Z,88.00
2018-09-15T12:51:25.134Z,88.60
2018-09-15T12:53:52.684Z,88.20
2018-09-15T12:56:20.257Z,86.80
2018-09-15T12:58:47.989Z,86.50
2018-09-15T13:01:15.687Z,84.70
2018-09-15T13:03:43.247Z,81.00
2018-09-15T13:06:10.862Z,77.40
2018-09-15T13:08:38.472Z,77.50
2018-09-15T13:11:06.051Z,75.90
2018-09-15T13:13:33.633Z,74.70
2018-09-15T13:16:01.371Z,74.30
2018-09-15T13:18:28.929Z,74.00
2018-09-15T13:20:56.613Z,73.70
2018-09-15T13:23:24.179Z,73.50
2018-09-15T13:25:51.735Z,74.30
2018-09-15T13:28:19.345Z,74.90
2018-09-15T13:30:46.941Z,75.90
2018-09-15T13:33:14.509Z,76.50
2018-09-15T13:35:42.065Z,75.40
2018-09-15T13:38:09.736Z,74.40
2018-09-15T13:40:37.310Z,71.50
2018-09-15T13:43:04.975Z,72.80
2018-09-15T13:45:32.523Z,73.10
2018-09-15T13:48:00.292Z,71.90
2018-09-15T13:50:27.865Z,72.60
2018-09-15T13:52:55.455Z,73.50
2018-09-15T13:55:23.072Z,74.40
2018-09-15T13:57:50.676Z,74.90
2018-09-15T14:00:18.256Z,74.40
2018-09-15T14:02:45.847Z,75.30
2018-09-15T14:05:14.223Z,76.50
2018-09-15T14:07:42.400Z,77.30
2018-09-15T14:10:10.317Z,78.60
2018-09-15T14:12:38.021Z,78.90
2018-09-15T14:15:05.861Z,76.60
2018-09-15T14:17:33.611Z,76.30
2018-09-15T14:20:01.570Z,77.70
2018-09-15T14:22:29.110Z,77.70
2018-09-15T14:24:56.693Z,78.10
2018-09-15T14:27:24.282Z,78.40
2018-09-15T14:29:51.883Z,78.80
2018-09-15T14:32:19.542Z,79.80
2018-09-15T14:34:47.327Z,80.40
2018-09-15T14:37:14.847Z,80.20
2018-09-15T14:39:42.433Z,80.10
2018-09-15T14:42:10.049Z,80.90
2018-09-15T14:44:37.645Z,81.00
2018-09-15T14:47:05.279Z,81.30
2018-09-15T14:49:32.867Z,80.60
2018-09-15T14:52:00.503Z,80.30
2018-09-15T14:54:28.079Z,81.50
2018-09-15T14:56:55.647Z,82.50
2018-09-15T14:59:23.240Z,82.90
2018-09-15T15:01:50.878Z,82.50
2018-09-15T15:04:18.381Z,82.70
2018-09-15T15:06:45.979Z,83.00
2018-09-15T15:09:13.573Z,83.10
2018-09-15T15:11:41.211Z,83.80
2018-09-15T15:14:09.194Z,84.00
2018-09-15T15:16:36.828Z,84.40
2018-09-15T15:19:04.387Z,84.80
2018-09-15T15:21:31.935Z,85.00
2018-09-15T15:23:59.510Z,85.30
2018-09-15T15:26:27.243Z,85.00
2018-09-15T15:28:54.820Z,85.70
2018-09-15T15:31:22.468Z,86.40
2018-09-15T15:33:50.173Z,86.60
2018-09-15T15:36:17.770Z,85.90
2018-09-15T15:38:45.349Z,86.20
2018-09-15T15:41:12.954Z,86.40
2018-09-15T15:43:41.397Z,86.90
2018-09-15T15:46:09.106Z,87.50
2018-09-15T15:48:36.758Z,87.90
2018-09-15T15:51:04.518Z,88.80
2018-09-15T15:53:32.089Z,89.40
2018-09-15T15:55:59.707Z,89.90
2018-09-15T15:58:27.320Z,90.00
2018-09-15T16:00:54.903Z,89.50
2018-09-15T16:03:22.513Z,89.40
2018-09-15T16:05:50.122Z,89.60
2018-09-15T16:08:17.732Z,89.80
2018-09-15T16:10:45.399Z,89.70
2018-09-15T16:13:12.943Z,90.20
2018-09-15T16:15:40.540Z,90.30
2018-09-15T16:18:08.080Z,90.40
2018-09-15T16:20:35.642Z,90.30
2018-09-15T16:23:03.232Z,90.10
2018-09-15T16:25:30.825Z,90.30
2018-09-15T16:27:58.391Z,90.20
2018-09-15T16:30:25.949Z,90.30
2018-09-15T16:32:53.535Z,90.50
2018-09-15T16:35:21.094Z,90.50
2018-09-15T16:37:48.659Z,90.70
2018-09-15T16:40:16.259Z,90.80
2018-09-15T16:42:43.979Z,90.90
2018-09-15T16:45:11.530Z,91.10
2018-09-15T16:47:39.095Z,91.30
2018-09-15T16:50:06.761Z,91.50
2018-09-15T16:52:34.354Z,91.80
2018-09-15T16:55:01.948Z,92.10
2018-09-15T16:57:29.515Z,92.40
2018-09-15T16:59:57.139Z,92.60
2018-09-15T17:02:24.733Z,92.90
2018-09-15T17:04:52.292Z,93.10
2018-09-15T17:07:19.868Z,93.40
2018-09-15T17:09:47.455Z,93.70
2018-09-15T17:12:15.033Z,93.90
2018-09-15T17:14:42.632Z,94.20
2018-09-15T17:17:10.285Z,94.50
2018-09-15T17:19:37.932Z,94.80
2018-09-15T17:22:05.571Z,95.10
2018-09-15T17:24:33.686Z,95.30
2018-09-15T17:27:01.280Z,95.80
2018-09-15T17:29:28.892Z,95.70
2018-09-15T17:31:56.473Z,96.00
2018-09-15T17:34:24.291Z,96.40
2018-09-15T17:36:52.308Z,96.80
2018-09-15T17:39:19.816Z,97.20
2018-09-15T17:41:47.432Z,97.60
2018-09-15T17:44:15.006Z,98.00
2018-09-15T17:46:42.589Z,98.10
2018-09-15T17:49:10.173Z,98.40
2018-09-15T17:51:37.762Z,98.60
2018-09-15T17:54:05.502Z,98.70
2018-09-15T17:56:33.073Z,98.90
2018-09-15T17:59:00.681Z,99.30
2018-09-15T18:01:28.384Z,99.30
2018-09-15T18:03:56.752Z,99.30
2018-09-15T18:06:24.375Z,99.50
2018-09-15T18:08:52.457Z,99.70
2018-09-15T18:11:20.254Z,99.80
2018-09-15T18:13:48.001Z,99.90
2018-09-15T18:16:15.658Z,99.90
2018-09-15T18:18:43.280Z,99.90
2018-09-15T18:21:11.018Z,99.90
2018-09-15T18:23:38.644Z,99.90
2018-09-15T18:26:06.353Z,99.90
2018-09-15T18:28:34.055Z,99.90
2018-09-15T18:31:01.778Z,99.90
2018-09-15T18:33:29.469Z,99.90
2018-09-15T18:35:57.111Z,99.90
2018-09-15T18:38:24.752Z,99.90
2018-09-15T18:40:52.436Z,99.90
2018-09-15T18:43:20.180Z,99.90
2018-09-15T18:45:47.904Z,99.90
2018-09-15T18:48:15.590Z,99.90
2018-09-15T18:50:43.327Z,99.90
2018-09-15T18:53:11.076Z,99.90
2018-09-15T18:55:38.706Z,99.90
2018-09-15T18:58:06.452Z,99.90
2018-09-15T19:00:34.201Z,99.90
2018-09-15T19:03:02.388Z,99.90
2018-09-15T19:05:30.540Z,99.90
2018-09-15T19:07:58.517Z,99.90
2018-09-15T19:10:26.152Z,99.90
2018-09-15T19:12:55.022Z,99.90
2018-09-15T19:15:22.973Z,99.90
2018-09-15T19:17:50.746Z,99.90
2018-09-15T19:20:18.447Z,99.90
2018-09-15T19:22:47.028Z,99.90
2018-09-15T19:25:14.687Z,99.90
2018-09-15T19:27:42.407Z,99.90
2018-09-15T19:30:10.238Z,99.90
2018-09-15T19:32:37.897Z,99.90
2018-09-15T19:35:05.711Z,99.90
2018-09-15T19:37:33.769Z,99.90
2018-09-15T19:40:01.487Z,99.90
2018-09-15T19:42:29.177Z,99.90
2018-09-15T19:44:56.921Z,99.90
2018-09-15T19:47:24.586Z,99.90
2018-09-15T19:49:52.367Z,99.90
2018-09-15T19:52:20.085Z,99.90
2018-09-15T19:54:47.848Z,99.90
2018-09-15T19:57:15.515Z,99.90
2018-09-15T19:59:43.209Z,99.90
2018-09-15T20:02:10.897Z,99.90
2018-09-15T20:04:38.625Z,99.90
2018-09-15T20:07:06.285Z,99.90
2018-09-15T20:09:33.981Z,99.90
2018-09-15T20:12:01.943Z,99.90
2018-09-15T20:14:29.599Z,99.90
2018-09-15T20:16:56.168Z,99.90
2018-09-15T20:19:22.897Z,99.90
2018-09-15T20:21:49.400Z,99.90
2018-09-15T20:24:21.169Z,99.90
2018-09-15T20:26:48.831Z,99.90
2018-09-15T20:29:16.471Z,99.90
2018-09-15T20:31:44.132Z,99.90
2018-09-15T20:34:11.806Z,99.90
2018-09-15T20:36:40.514Z,99.90
2018-09-15T20:39:09.955Z,99.90
2018-09-15T20:41:37.584Z,99.90
2018-09-15T20:44:05.238Z,99.90
2018-09-15T20:46:32.881Z,99.90
2018-09-15T20:49:00.645Z,99.90
2018-09-15T20:51:28.465Z,99.90
2018-09-15T20:53:56.124Z,99.90
2018-09-15T20:56:23.844Z,99.90
2018-09-15T20:58:51.497Z,99.90
2018-09-15T21:01:19.209Z,99.90
2018-09-15T21:03:46.844Z,99.90
2018-09-15T21:06:15.526Z,99.90
2018-09-15T21:08:43.196Z,99.90
2018-09-15T21:11:10.883Z,99.90
2018-09-15T21:13:38.498Z,99.90
2018-09-15T21:16:06.418Z,99.90
2018-09-15T21:18:34.073Z,99.90
2018-09-15T21:21:01.691Z,99.90
2018-09-15T21:23:29.296Z,99.90
2018-09-15T21:25:56.853Z,99.90
2018-09-15T21:28:24.409Z,99.90
2018-09-15T21:30:51.981Z,99.90
2018-09-15T21:33:19.603Z,99.90
2018-09-15T21:35:47.169Z,99.90
2018-09-15T21:38:14.731Z,99.90
2018-09-15T21:40:42.325Z,99.90
2018-09-15T21:43:09.927Z,99.90
2018-09-15T21:45:37.481Z,99.90
2018-09-15T21:48:05.205Z,99.90
2018-09-15T21:50:32.839Z,99.90
2018-09-15T21:53:00.546Z,99.90
2018-09-15T21:55:28.113Z,99.90
2018-09-15T21:57:55.699Z,99.90
2018-09-15T22:00:23.310Z,99.90
2018-09-15T22:02:50.891Z,99.90
2018-09-15T22:05:18.455Z,99.90
2018-09-15T22:07:46.025Z,99.90
2018-09-15T22:10:13.592Z,99.90
2018-09-15T22:12:41.156Z,99.90
2018-09-15T22:15:25.035Z,99.90
2018-09-15T22:17:53.563Z,99.90
2018-09-15T22:20:21.161Z,99.90
2018-09-15T22:22:48.702Z,99.90
2018-09-15T22:25:16.605Z,99.90
2018-09-15T22:27:44.294Z,99.90
2018-09-15T22:30:11.854Z,99.90
2018-09-15T22:32:39.452Z,99.90
2018-09-15T22:35:07.034Z,99.90
2018-09-15T22:37:34.602Z,99.90
2018-09-15T22:40:02.545Z,99.90
2018-09-15T22:42:30.080Z,99.90
2018-09-15T22:44:58.004Z,99.90
2018-09-15T22:47:25.692Z,99.90
2018-09-15T22:49:53.264Z,99.90
2018-09-15T22:52:20.832Z,99.90
2018-09-15T22:54:48.373Z,99.90
2018-09-15T22:57:15.933Z,99.90
2018-09-15T22:59:43.471Z,99.90
2018-09-15T23:02:11.037Z,99.90
2018-09-15T23:04:38.689Z,99.90
2018-09-15T23:07:06.253Z,99.90
2018-09-15T23:09:33.840Z,99.90
2018-09-15T23:12:01.390Z,99.90
2018-09-15T23:14:28.944Z,99.90
2018-09-15T23:16:56.527Z,99.90
2018-09-15T23:19:24.122Z,99.90
2018-09-15T23:21:51.744Z,99.90
2018-09-15T23:24:19.281Z,99.90
2018-09-15T23:26:46.822Z,99.90
2018-09-15T23:29:14.376Z,99.90
2018-09-15T23:31:41.926Z,99.90
2018-09-15T23:34:09.476Z,99.90
2018-09-15T23:36:37.014Z,99.90
2018-09-15T23:39:07.193Z,99.90
2018-09-15T23:41:34.769Z,99.90
2018-09-15T23:44:02.359Z,99.90
2018-09-15T23:46:29.912Z,99.90
2018-09-15T23:48:57.493Z,99.90
2018-09-15T23:51:25.047Z,99.90
2018-09-15T23:53:52.590Z,99.90
2018-09-15T23:56:20.152Z,99.90
2018-09-15T23:58:47.821Z,99.90
